Date,TemperatureHighF,TemperatureAvgF,TemperatureLowF,DewpointHighF,DewpointAvgF,DewpointLowF,HumidityHigh,HumidityAvg,HumidityLow,PressureMaxIn,PressureMinIn,WindSpeedMaxMPH,WindSpeedAvgMPH,GustSpeedMaxMPH,PrecipitationSumIn
2013-1-1,15.3,2.2,-14.1,10.8,-3.5,-19.1,86,77,57,30.34,30.14,12,1,12,0.00
2013-1-2,20.5,17.3,14.6,14.3,12.8,10.4,89,82,74,30.14,30.03,8,2,8,0.00
2013-1-3,22.1,17.8,11.6,17.3,13.1,6.8,90,82,72,30.22,30.05,12,2,12,0.00
2013-1-4,33.1,16.3,3.6,22.0,10.9,-0.2,91,80,61,30.21,30.02,10,1,10,0.00
2013-1-5,29.0,14.8,0.9,20.8,9.9,-3.0,92,81,66,30.21,29.92,9,1,9,0.00
2013-1-6,27.7,22.2,14.5,22.7,16.6,9.5,88,79,60,30.23,29.99,9,2,9,0.00
2013-1-7,34.7,22.9,15.3,26.0,17.7,8.8,88,80,69,30.14,29.90,16,2,16,0.00
2013-1-8,39.1,24.9,6.9,30.1,20.4,3.3,92,83,65,30.09,29.80,13,2,13,0.00
2013-1-9,34.7,29.5,16.8,28.9,22.9,13.3,86,77,63,30.40,29.85,18,4,18,0.00
2013-1-10,42.1,30.3,16.7,33.9,20.1,13.2,95,70,35,30.44,29.81,13,2,13,0.24
2013-1-11,41.1,37.1,35.0,40.6,36.2,33.7,98,97,95,29.83,29.40,12,3,12,0.06
2013-1-12,42.6,24.6,12.6,42.0,20.3,6.2,98,83,74,30.06,29.39,20,5,20,0.01
2013-1-13,12.8,9.7,4.5,8.5,4.5,0.2,84,79,72,30.26,30.02,8,2,8,0.00
2013-1-14,12.6,4.3,-2.1,5.8,-0.3,-6.2,86,81,70,30.46,30.26,12,1,12,0.00
2013-1-15,26.2,16.9,5.5,18.1,10.6,2.0,87,77,57,30.42,29.88,13,3,13,0.00
2013-1-16,26.9,20.8,11.5,24.6,14.4,1.3,91,77,61,30.21,29.65,13,3,13,0.09
2013-1-17,11.8,5.1,-6.8,3.3,-2.1,-11.4,82,72,63,30.45,30.21,7,1,7,0.00
2013-1-18,31.5,18.2,-5.9,26.3,14.3,-10.4,91,85,77,30.43,29.80,12,2,12,0.09
2013-1-19,35.4,22.5,2.4,30.6,17.5,-4.1,90,81,61,30.10,29.60,22,5,22,0.00
2013-1-20,4.9,-0.9,-7.5,-4.1,-7.1,-11.8,85,75,60,30.38,30.10,13,3,13,0.00
2013-1-21,-2.4,-10.1,-16.5,-7.3,-17.1,-21.8,80,71,58,30.38,30.27,17,2,17,0.00
2013-1-22,0.1,-10.4,-19.5,-11.0,-17.2,-24.6,80,72,57,30.49,30.37,8,1,8,0.00
2013-1-23,11.1,-3.5,-17.1,5.1,-9.2,-22.1,84,76,63,30.68,30.21,14,2,14,0.00
2013-1-24,9.1,-1.2,-15.3,3.9,-7.8,-20.2,83,73,56,30.78,30.33,8,1,8,0.01
2013-1-25,16.7,11.5,1.1,12.0,6.9,-3.1,86,82,74,30.33,30.00,12,2,12,0.08
2013-1-26,20.2,9.1,-10.2,13.1,2.8,-14.7,87,76,64,30.47,30.29,10,2,10,0.00
2013-1-27,33.3,26.9,20.3,27.4,20.6,12.7,93,78,57,30.30,29.89,12,2,12,0.36
2013-1-28,30.1,27.0,22.5,27.6,24.7,19.6,94,91,89,29.95,29.85,0,0,0,0.02
2013-1-29,33.1,30.5,28.0,30.8,27.9,24.7,92,90,88,29.73,29.63,9,2,9,0.08
2013-1-30,28.0,19.0,9.4,25.1,15.1,5.0,89,84,80,29.71,29.57,12,3,12,0.00
2013-1-31,9.4,5.6,-3.0,5.2,0.3,-8.4,84,78,70,30.22,29.68,13,3,13,0.00